sensor_id;sensor_type;location;lat;lon;timestamp;pressure;altitude;pressure_sealevel;temperature;humidity
84653;BME280;74883;48.882;2.092;2024-02-14T00:01:13;101423.88;;;9.43;93.64
84653;BME280;74883;48.882;2.092;2024-02-14T00:03:38;101423.84;;;9.45;93.05
84653;BME280;74883;48.882;2.092;2024-02-14T00:06:05;101417.78;;;9.44;92.88
84653;BME280;74883;48.882;2.092;2024-02-14T00:08:31;101415.78;;;9.51;93.23
84653;BME280;74883;48.882;2.092;2024-02-14T00:10:56;101434.03;;;9.49;93.81
84653;BME280;74883;48.882;2.092;2024-02-14T00:13:21;101423.88;;;9.43;93.32
84653;BME280;74883;48.882;2.092;2024-02-14T00:15:47;101433.28;;;9.46;93.53
84653;BME280;74883;48.882;2.092;2024-02-14T00:18:12;101435.19;;;9.42;92.99
84653;BME280;74883;48.882;2.092;2024-02-14T00:20:38;101436.03;;;9.43;93.39
84653;BME280;74883;48.882;2.092;2024-02-14T00:23:04;101451.34;;;9.49;94.17
84653;BME280;74883;48.882;2.092;2024-02-14T00:25:29;101455.09;;;9.42;92.95
84653;BME280;74883;48.882;2.092;2024-02-14T00:27:55;101453.22;;;9.45;93.59
84653;BME280;74883;48.882;2.092;2024-02-14T00:30:20;101460.84;;;9.50;94.06
84653;BME280;74883;48.882;2.092;2024-02-14T00:32:48;101455.00;;;9.43;93.49
84653;BME280;74883;48.882;2.092;2024-02-14T00:35:13;101466.03;;;9.50;94.33
84653;BME280;74883;48.882;2.092;2024-02-14T00:37:39;101464.25;;;9.50;94.55
84653;BME280;74883;48.882;2.092;2024-02-14T00:40:04;101450.56;;;9.47;93.88
84653;BME280;74883;48.882;2.092;2024-02-14T00:42:31;101452.38;;;9.45;94.20
84653;BME280;74883;48.882;2.092;2024-02-14T00:44:56;101457.31;;;9.51;94.56
84653;BME280;74883;48.882;2.092;2024-02-14T00:47:21;101463.34;;;9.51;94.47
84653;BME280;74883;48.882;2.092;2024-02-14T00:49:47;101459.88;;;9.52;94.36
84653;BME280;74883;48.882;2.092;2024-02-14T00:52:12;101454.59;;;9.54;94.45
84653;BME280;74883;48.882;2.092;2024-02-14T00:54:37;101455.56;;;9.51;94.16
84653;BME280;74883;48.882;2.092;2024-02-14T00:57:03;101460.66;;;9.54;94.23
84653;BME280;74883;48.882;2.092;2024-02-14T00:59:28;101457.31;;;9.51;93.68
84653;BME280;74883;48.882;2.092;2024-02-14T01:01:54;101453.03;;;9.50;94.03
84653;BME280;74883;48.882;2.092;2024-02-14T01:04:19;101448.50;;;9.55;94.62
84653;BME280;74883;48.882;2.092;2024-02-14T01:06:44;101452.66;;;9.59;95.32
84653;BME280;74883;48.882;2.092;2024-02-14T01:09:09;101449.28;;;9.57;94.94
84653;BME280;74883;48.882;2.092;2024-02-14T01:11:35;101452.59;;;9.60;95.42
84653;BME280;74883;48.882;2.092;2024-02-14T01:14:03;101437.81;;;9.62;94.22
84653;BME280;74883;48.882;2.092;2024-02-14T01:16:29;101439.44;;;9.65;94.85
84653;BME280;74883;48.882;2.092;2024-02-14T01:18:54;101441.25;;;9.63;94.53
84653;BME280;74883;48.882;2.092;2024-02-14T01:21:20;101444.72;;;9.62;94.32
84653;BME280;74883;48.882;2.092;2024-02-14T01:23:45;101447.28;;;9.63;94.78
84653;BME280;74883;48.882;2.092;2024-02-14T01:26:10;101457.66;;;9.63;94.84
84653;BME280;74883;48.882;2.092;2024-02-14T01:28:35;101461.16;;;9.62;94.39
84653;BME280;74883;48.882;2.092;2024-02-14T01:31:01;101471.50;;;9.64;94.67
84653;BME280;74883;48.882;2.092;2024-02-14T01:33:26;101465.38;;;9.65;95.18
84653;BME280;74883;48.882;2.092;2024-02-14T01:35:51;101477.47;;;9.66;94.67
84653;BME280;74883;48.882;2.092;2024-02-14T01:38:17;101485.97;;;9.69;94.43
84653;BME280;74883;48.882;2.092;2024-02-14T01:40:43;101481.53;;;9.71;94.37
84653;BME280;74883;48.882;2.092;2024-02-14T01:43:10;101480.59;;;9.74;94.07
84653;BME280;74883;48.882;2.092;2024-02-14T01:45:35;101481.53;;;9.71;94.14
84653;BME280;74883;48.882;2.092;2024-02-14T01:48:01;101484.41;;;9.65;93.45
84653;BME280;74883;48.882;2.092;2024-02-14T01:50:27;101494.72;;;9.67;94.90
84653;BME280;74883;48.882;2.092;2024-02-14T01:52:58;101496.34;;;9.69;94.22
84653;BME280;74883;48.882;2.092;2024-02-14T01:55:24;101501.59;;;9.68;94.21
84653;BME280;74883;48.882;2.092;2024-02-14T01:57:51;101499.78;;;9.70;94.89
84653;BME280;74883;48.882;2.092;2024-02-14T02:00:17;101492.84;;;9.70;95.19
84653;BME280;74883;48.882;2.092;2024-02-14T02:02:43;101489.41;;;9.70;95.04
84653;BME280;74883;48.882;2.092;2024-02-14T02:05:09;101477.59;;;9.63;95.12
84653;BME280;74883;48.882;2.092;2024-02-14T02:07:34;101474.59;;;9.52;95.65
84653;BME280;74883;48.882;2.092;2024-02-14T02:10:00;101469.81;;;9.41;96.00
84653;BME280;74883;48.882;2.092;2024-02-14T02:12:26;101483.88;;;9.36;96.11
84653;BME280;74883;48.882;2.092;2024-02-14T02:14:53;101485.56;;;9.37;96.79
84653;BME280;74883;48.882;2.092;2024-02-14T02:17:18;101488.94;;;9.39;96.23
84653;BME280;74883;48.882;2.092;2024-02-14T02:19:44;101493.47;;;9.34;96.91
84653;BME280;74883;48.882;2.092;2024-02-14T02:22:09;101494.47;;;9.30;96.50
84653;BME280;74883;48.882;2.092;2024-02-14T02:24:35;101487.66;;;9.27;97.05
84653;BME280;74883;48.882;2.092;2024-02-14T02:27:01;101493.03;;;9.23;96.68
84653;BME280;74883;48.882;2.092;2024-02-14T02:29:26;101487.03;;;9.22;97.23
84653;BME280;74883;48.882;2.092;2024-02-14T02:31:52;101487.84;;;9.23;96.89
84653;BME280;74883;48.882;2.092;2024-02-14T02:34:17;101487.03;;;9.22;97.54
84653;BME280;74883;48.882;2.092;2024-02-14T02:36:43;101491.34;;;9.22;97.74
84653;BME280;74883;48.882;2.092;2024-02-14T02:39:08;101492.06;;;9.25;97.57
84653;BME280;74883;48.882;2.092;2024-02-14T02:41:34;101496.28;;;9.28;97.65
84653;BME280;74883;48.882;2.092;2024-02-14T02:44:00;101496.19;;;9.31;97.77
84653;BME280;74883;48.882;2.092;2024-02-14T02:46:27;101495.50;;;9.26;97.64
84653;BME280;74883;48.882;2.092;2024-02-14T02:48:52;101491.22;;;9.25;98.33
84653;BME280;74883;48.882;2.092;2024-02-14T02:51:20;101493.03;;;9.23;97.82
84653;BME280;74883;48.882;2.092;2024-02-14T02:53:45;101498.34;;;9.20;97.83
84653;BME280;74883;48.882;2.092;2024-02-14T02:56:10;101501.84;;;9.19;97.92
84653;BME280;74883;48.882;2.092;2024-02-14T02:58:38;101499.19;;;9.20;98.05
84653;BME280;74883;48.882;2.092;2024-02-14T03:01:07;101495.69;;;9.21;98.42
84653;BME280;74883;48.882;2.092;2024-02-14T03:03:32;101500.03;;;9.21;98.36
84653;BME280;74883;48.882;2.092;2024-02-14T03:05:58;101494.84;;;9.21;98.60
84653;BME280;74883;48.882;2.092;2024-02-14T03:08:24;101489.66;;;9.21;98.50
84653;BME280;74883;48.882;2.092;2024-02-14T03:10:51;101488.63;;;9.25;98.64
84653;BME280;74883;48.882;2.092;2024-02-14T03:13:16;101487.63;;;9.29;98.42
84653;BME280;74883;48.882;2.092;2024-02-14T03:15:42;101484.25;;;9.27;98.28
84653;BME280;74883;48.882;2.092;2024-02-14T03:18:09;101493.66;;;9.29;98.31
84653;BME280;74883;48.882;2.092;2024-02-14T03:20:35;101486.66;;;9.31;98.33
84653;BME280;74883;48.882;2.092;2024-02-14T03:23:01;101480.25;;;9.40;98.26
84653;BME280;74883;48.882;2.092;2024-02-14T03:25:28;101475.19;;;9.37;98.34
84653;BME280;74883;48.882;2.092;2024-02-14T03:27:54;101474.94;;;9.43;98.43
84653;BME280;74883;48.882;2.092;2024-02-14T03:30:19;101479.22;;;9.44;98.42
84653;BME280;74883;48.882;2.092;2024-02-14T03:32:46;101475.66;;;9.46;98.53
84653;BME280;74883;48.882;2.092;2024-02-14T03:35:12;101485.19;;;9.46;98.57
84653;BME280;74883;48.882;2.092;2024-02-14T03:37:41;101484.19;;;9.50;98.35
84653;BME280;74883;48.882;2.092;2024-02-14T03:40:08;101472.19;;;9.47;98.30
84653;BME280;74883;48.882;2.092;2024-02-14T03:42:36;101479.00;;;9.50;98.27
84653;BME280;74883;48.882;2.092;2024-02-14T03:45:05;101488.56;;;9.48;97.83
84653;BME280;74883;48.882;2.092;2024-02-14T03:47:31;101478.25;;;9.46;98.00
84653;BME280;74883;48.882;2.092;2024-02-14T03:50:01;101484.22;;;9.48;97.98
84653;BME280;74883;48.882;2.092;2024-02-14T03:52:29;101486.63;;;9.53;98.45
84653;BME280;74883;48.882;2.092;2024-02-14T03:54:57;101485.66;;;9.55;98.26
84653;BME280;74883;48.882;2.092;2024-02-14T03:57:23;101494.25;;;9.57;98.21
84653;BME280;74883;48.882;2.092;2024-02-14T03:59:50;101490.56;;;9.63;98.07
84653;BME280;74883;48.882;2.092;2024-02-14T04:02:15;101495.69;;;9.64;98.74
84653;BME280;74883;48.882;2.092;2024-02-14T04:04:41;101491.34;;;9.65;98.45
84653;BME280;74883;48.882;2.092;2024-02-14T04:07:08;101490.44;;;9.66;98.28
84653;BME280;74883;48.882;2.092;2024-02-14T04:09:34;101483.38;;;9.69;98.46
84653;BME280;74883;48.882;2.092;2024-02-14T04:11:59;101483.38;;;9.69;98.05
84653;BME280;74883;48.882;2.092;2024-02-14T04:14:24;101489.53;;;9.67;98.31
84653;BME280;74883;48.882;2.092;2024-02-14T04:16:50;101493.81;;;9.68;98.19
84653;BME280;74883;48.882;2.092;2024-02-14T04:19:15;101497.38;;;9.65;98.28
84653;BME280;74883;48.882;2.092;2024-02-14T04:21:42;101493.94;;;9.65;98.10
84653;BME280;74883;48.882;2.092;2024-02-14T04:24:08;101491.22;;;9.68;97.90
84653;BME280;74883;48.882;2.092;2024-02-14T04:26:34;101489.16;;;9.76;98.25
84653;BME280;74883;48.882;2.092;2024-02-14T04:29:00;101490.06;;;9.75;98.40
84653;BME280;74883;48.882;2.092;2024-02-14T04:31:25;101484.09;;;9.73;98.01
84653;BME280;74883;48.882;2.092;2024-02-14T04:33:52;101489.28;;;9.73;98.12
84653;BME280;74883;48.882;2.092;2024-02-14T04:36:19;101481.50;;;9.73;98.29
84653;BME280;74883;48.882;2.092;2024-02-14T04:38:46;101478.91;;;9.73;98.31
84653;BME280;74883;48.882;2.092;2024-02-14T04:41:11;101489.16;;;9.76;98.36
84653;BME280;74883;48.882;2.092;2024-02-14T04:43:36;101484.72;;;9.78;98.23
84653;BME280;74883;48.882;2.092;2024-02-14T04:46:02;101489.09;;;9.77;98.44
84653;BME280;74883;48.882;2.092;2024-02-14T04:48:32;101487.47;;;9.75;98.59
84653;BME280;74883;48.882;2.092;2024-02-14T04:50:57;101479.63;;;9.76;98.71
84653;BME280;74883;48.882;2.092;2024-02-14T04:53:22;101487.22;;;9.81;98.50
84653;BME280;74883;48.882;2.092;2024-02-14T04:55:47;101481.78;;;9.87;98.41
84653;BME280;74883;48.882;2.092;2024-02-14T04:58:13;101482.75;;;9.85;98.23
84653;BME280;74883;48.882;2.092;2024-02-14T05:00:38;101499.16;;;9.85;98.39
84653;BME280;74883;48.882;2.092;2024-02-14T05:03:04;101491.50;;;9.82;98.24
84653;BME280;74883;48.882;2.092;2024-02-14T05:05:30;101483.56;;;9.85;98.44
84653;BME280;74883;48.882;2.092;2024-02-14T05:07:55;101489.56;;;9.87;98.65
84653;BME280;74883;48.882;2.092;2024-02-14T05:10:20;101485.09;;;9.91;98.79
84653;BME280;74883;48.882;2.092;2024-02-14T05:12:45;101487.69;;;9.91;98.75
84653;BME280;74883;48.882;2.092;2024-02-14T05:15:11;101492.03;;;9.90;98.32
84653;BME280;74883;48.882;2.092;2024-02-14T05:17:37;101502.41;;;9.90;98.34
84653;BME280;74883;48.882;2.092;2024-02-14T05:20:05;101488.53;;;9.91;98.29
84653;BME280;74883;48.882;2.092;2024-02-14T05:22:38;101486.78;;;9.92;98.46
84653;BME280;74883;48.882;2.092;2024-02-14T05:25:04;101487.69;;;9.91;98.27
84653;BME280;74883;48.882;2.092;2024-02-14T05:27:30;101480.47;;;9.97;98.85
84653;BME280;74883;48.882;2.092;2024-02-14T05:29:56;101484.78;;;9.98;98.74
84653;BME280;74883;48.882;2.092;2024-02-14T05:32:21;101480.34;;;10.00;99.03
84653;BME280;74883;48.882;2.092;2024-02-14T05:34:46;101480.22;;;10.03;98.61
84653;BME280;74883;48.882;2.092;2024-02-14T05:37:12;101478.59;;;10.01;98.86
84653;BME280;74883;48.882;2.092;2024-02-14T05:39:37;101476.47;;;10.10;98.66
84653;BME280;74883;48.882;2.092;2024-02-14T05:42:03;101469.56;;;10.09;99.05
84653;BME280;74883;48.882;2.092;2024-02-14T05:44:29;101468.69;;;10.10;98.70
84653;BME280;74883;48.882;2.092;2024-02-14T05:46:55;101470.47;;;10.08;98.79
84653;BME280;74883;48.882;2.092;2024-02-14T05:49:22;101474.78;;;10.09;98.72
84653;BME280;74883;48.882;2.092;2024-02-14T05:51:47;101471.16;;;10.13;98.87
84653;BME280;74883;48.882;2.092;2024-02-14T05:54:12;101477.28;;;10.12;98.47
84653;BME280;74883;48.882;2.092;2024-02-14T05:56:38;101483.31;;;10.13;98.46
84653;BME280;74883;48.882;2.092;2024-02-14T05:59:03;101476.47;;;10.10;98.49
84653;BME280;74883;48.882;2.092;2024-02-14T06:01:29;101482.47;;;10.12;98.67
84653;BME280;74883;48.882;2.092;2024-02-14T06:03:54;101484.22;;;10.12;98.36
84653;BME280;74883;48.882;2.092;2024-02-14T06:06:20;101492.59;;;10.18;98.66
84653;BME280;74883;48.882;2.092;2024-02-14T06:08:45;101487.19;;;10.23;98.47
84653;BME280;74883;48.882;2.092;2024-02-14T06:11:10;101489.75;;;10.24;98.72
84653;BME280;74883;48.882;2.092;2024-02-14T06:13:37;101487.16;;;10.24;98.55
84653;BME280;74883;48.882;2.092;2024-02-14T06:16:03;101495.84;;;10.23;98.74
84653;BME280;74883;48.882;2.092;2024-02-14T06:18:28;101489.59;;;10.27;98.78
84653;BME280;74883;48.882;2.092;2024-02-14T06:20:54;101497.53;;;10.24;98.13
84653;BME280;74883;48.882;2.092;2024-02-14T06:23:19;101494.03;;;10.25;98.89
84653;BME280;74883;48.882;2.092;2024-02-14T06:25:44;101499.00;;;10.30;98.42
84653;BME280;74883;48.882;2.092;2024-02-14T06:28:09;101499.75;;;10.33;98.60
84653;BME280;74883;48.882;2.092;2024-02-14T06:30:35;101496.41;;;10.30;98.21
84653;BME280;74883;48.882;2.092;2024-02-14T06:33:01;101508.31;;;10.35;98.34
84653;BME280;74883;48.882;2.092;2024-02-14T06:35:27;101501.38;;;10.36;98.16
84653;BME280;74883;48.882;2.092;2024-02-14T06:37:53;101503.16;;;10.34;97.96
84653;BME280;74883;48.882;2.092;2024-02-14T06:40:19;101500.72;;;10.31;98.33
84653;BME280;74883;48.882;2.092;2024-02-14T06:42:44;101510.38;;;10.27;98.22
84653;BME280;74883;48.882;2.092;2024-02-14T06:45:10;101504.94;;;10.33;98.61
84653;BME280;74883;48.882;2.092;2024-02-14T06:47:35;101502.47;;;10.30;98.40
84653;BME280;74883;48.882;2.092;2024-02-14T06:50:01;101514.59;;;10.30;98.10
84653;BME280;74883;48.882;2.092;2024-02-14T06:52:26;101523.38;;;10.27;98.32
84653;BME280;74883;48.882;2.092;2024-02-14T06:54:51;101519.88;;;10.28;98.55
84653;BME280;74883;48.882;2.092;2024-02-14T06:57:16;101525.97;;;10.27;98.58
84653;BME280;74883;48.882;2.092;2024-02-14T06:59:43;101531.94;;;10.29;98.38
84653;BME280;74883;48.882;2.092;2024-02-14T07:02:08;101528.19;;;10.36;98.57
84653;BME280;74883;48.882;2.092;2024-02-14T07:04:33;101528.06;;;10.39;98.41
84653;BME280;74883;48.882;2.092;2024-02-14T07:06:59;101521.97;;;10.40;98.59
84653;BME280;74883;48.882;2.092;2024-02-14T07:09:25;101527.53;;;10.52;98.00
84653;BME280;74883;48.882;2.092;2024-02-14T07:11:51;101529.94;;;10.56;98.53
84653;BME280;74883;48.882;2.092;2024-02-14T07:14:19;101524.97;;;10.50;98.67
84653;BME280;74883;48.882;2.092;2024-02-14T07:16:44;101508.28;;;10.56;98.51
84653;BME280;74883;48.882;2.092;2024-02-14T07:19:09;101508.16;;;10.59;98.42
84653;BME280;74883;48.882;2.092;2024-02-14T07:21:35;101520.09;;;10.63;98.62
84653;BME280;74883;48.882;2.092;2024-02-14T07:24:03;101531.59;;;10.57;98.16
84653;BME280;74883;48.882;2.092;2024-02-14T07:26:29;101539.47;;;10.56;98.63
84653;BME280;74883;48.882;2.092;2024-02-14T07:28:54;101545.41;;;10.59;98.41
84653;BME280;74883;48.882;2.092;2024-02-14T07:31:19;101547.84;;;10.62;98.32
84653;BME280;74883;48.882;2.092;2024-02-14T07:33:45;101550.19;;;10.68;98.19
84653;BME280;74883;48.882;2.092;2024-02-14T07:36:11;101557.78;;;10.73;98.07
84653;BME280;74883;48.882;2.092;2024-02-14T07:38:37;101562.78;;;10.77;98.01
84653;BME280;74883;48.882;2.092;2024-02-14T07:41:02;101571.44;;;10.78;97.75
84653;BME280;74883;48.882;2.092;2024-02-14T07:43:27;101572.34;;;10.77;98.04
84653;BME280;74883;48.882;2.092;2024-02-14T07:45:52;101569.22;;;10.89;98.43
84653;BME280;74883;48.882;2.092;2024-02-14T07:48:18;101561.53;;;10.86;98.23
84653;BME280;74883;48.882;2.092;2024-02-14T07:50:44;101548.03;;;10.78;97.75
84653;BME280;74883;48.882;2.092;2024-02-14T07:53:09;101549.59;;;10.82;97.81
84653;BME280;74883;48.882;2.092;2024-02-14T07:55:34;101557.50;;;10.79;97.44
84653;BME280;74883;48.882;2.092;2024-02-14T07:57:59;101559.00;;;10.84;97.93
84653;BME280;74883;48.882;2.092;2024-02-14T08:00:25;101561.78;;;11.00;97.66
84653;BME280;74883;48.882;2.092;2024-02-14T08:02:51;101558.28;;;11.01;97.91
84653;BME280;74883;48.882;2.092;2024-02-14T08:05:17;101547.88;;;11.01;98.00
84653;BME280;74883;48.882;2.092;2024-02-14T08:07:42;101544.84;;;11.10;98.12
84653;BME280;74883;48.882;2.092;2024-02-14T08:10:09;101561.22;;;11.12;97.54
84653;BME280;74883;48.882;2.092;2024-02-14T08:12:34;101557.69;;;11.13;97.01
84653;BME280;74883;48.882;2.092;2024-02-14T08:15:00;101552.34;;;11.16;96.86
84653;BME280;74883;48.882;2.092;2024-02-14T08:17:29;101558.00;;;11.26;97.09
84653;BME280;74883;48.882;2.092;2024-02-14T08:19:54;101566.47;;;11.29;97.01
84653;BME280;74883;48.882;2.092;2024-02-14T08:22:20;101559.25;;;11.36;97.48
84653;BME280;74883;48.882;2.092;2024-02-14T08:24:46;101566.00;;;11.40;96.99
84653;BME280;74883;48.882;2.092;2024-02-14T08:27:11;101571.06;;;11.43;96.50
84653;BME280;74883;48.882;2.092;2024-02-14T08:29:36;101571.75;;;11.46;97.21
84653;BME280;74883;48.882;2.092;2024-02-14T08:32:02;101568.41;;;11.44;96.99
84653;BME280;74883;48.882;2.092;2024-02-14T08:34:28;101561.22;;;11.49;96.78
84653;BME280;74883;48.882;2.092;2024-02-14T08:36:54;101564.38;;;11.56;96.38
84653;BME280;74883;48.882;2.092;2024-02-14T08:39:20;101559.84;;;11.59;96.16
84653;BME280;74883;48.882;2.092;2024-02-14T08:41:45;101562.00;;;11.70;95.50
84653;BME280;74883;48.882;2.092;2024-02-14T08:44:12;101558.22;;;11.75;95.58
84653;BME280;74883;48.882;2.092;2024-02-14T08:46:38;101550.41;;;11.75;95.33
84653;BME280;74883;48.882;2.092;2024-02-14T08:49:04;101566.00;;;11.77;95.44
84653;BME280;74883;48.882;2.092;2024-02-14T08:51:35;101565.84;;;11.80;94.43
84653;BME280;74883;48.882;2.092;2024-02-14T08:54:00;101563.16;;;11.81;94.51
84653;BME280;74883;48.882;2.092;2024-02-14T08:56:30;101562.84;;;11.88;94.85
84653;BME280;74883;48.882;2.092;2024-02-14T08:58:57;101571.44;;;11.90;94.30
84653;BME280;74883;48.882;2.092;2024-02-14T09:01:23;101584.41;;;11.91;94.90
84653;BME280;74883;48.882;2.092;2024-02-14T09:03:48;101590.59;;;11.89;94.27
84653;BME280;74883;48.882;2.092;2024-02-14T09:06:15;101596.19;;;11.81;92.98
84653;BME280;74883;48.882;2.092;2024-02-14T09:08:40;101595.91;;;11.87;94.19
84653;BME280;74883;48.882;2.092;2024-02-14T09:11:06;101596.03;;;11.84;95.17
84653;BME280;74883;48.882;2.092;2024-02-14T09:13:31;101598.69;;;11.82;95.00
84653;BME280;74883;48.882;2.092;2024-02-14T09:15:56;101595.28;;;11.82;94.97
84653;BME280;74883;48.882;2.092;2024-02-14T09:18:22;101592.59;;;11.83;95.13
84653;BME280;74883;48.882;2.092;2024-02-14T09:20:49;101596.41;;;11.76;95.83
84653;BME280;74883;48.882;2.092;2024-02-14T09:23:16;101599.78;;;11.78;95.65
84653;BME280;74883;48.882;2.092;2024-02-14T09:25:45;101595.19;;;11.83;95.13
84653;BME280;74883;48.882;2.092;2024-02-14T09:28:12;101592.28;;;11.90;95.12
84653;BME280;74883;48.882;2.092;2024-02-14T09:30:39;101588.22;;;12.01;94.75
84653;BME280;74883;48.882;2.092;2024-02-14T09:33:04;101589.72;;;12.07;94.87
84653;BME280;74883;48.882;2.092;2024-02-14T09:35:30;101587.59;;;12.15;94.62
84653;BME280;74883;48.882;2.092;2024-02-14T09:37:55;101581.16;;;12.22;94.28
84653;BME280;74883;48.882;2.092;2024-02-14T09:40:21;101578.84;;;12.33;94.12
84653;BME280;74883;48.882;2.092;2024-02-14T09:42:56;101577.69;;;12.38;92.72
84653;BME280;74883;48.882;2.092;2024-02-14T09:45:25;101571.78;;;12.52;92.51
84653;BME280;74883;48.882;2.092;2024-02-14T09:47:52;101571.13;;;12.64;93.43
84653;BME280;74883;48.882;2.092;2024-02-14T09:50:18;101572.13;;;12.62;92.92
84653;BME280;74883;48.882;2.092;2024-02-14T09:52:47;101573.22;;;12.57;92.66
84653;BME280;74883;48.882;2.092;2024-02-14T09:55:14;101565.16;;;12.62;92.67
84653;BME280;74883;48.882;2.092;2024-02-14T09:57:41;101576.53;;;12.61;92.35
84653;BME280;74883;48.882;2.092;2024-02-14T10:00:11;101579.06;;;12.63;91.90
84653;BME280;74883;48.882;2.092;2024-02-14T10:02:40;101586.13;;;12.61;92.53
84653;BME280;74883;48.882;2.092;2024-02-14T10:05:05;101585.88;;;12.65;92.43
84653;BME280;74883;48.882;2.092;2024-02-14T10:07:40;101576.06;;;12.70;93.21
84653;BME280;74883;48.882;2.092;2024-02-14T10:10:06;101568.91;;;12.74;91.71
84653;BME280;74883;48.882;2.092;2024-02-14T10:12:32;101564.44;;;12.76;92.02
84653;BME280;74883;48.882;2.092;2024-02-14T10:14:57;101570.38;;;12.79;91.75
84653;BME280;74883;48.882;2.092;2024-02-14T10:17:23;101571.88;;;12.83;92.30
84653;BME280;74883;48.882;2.092;2024-02-14T10:19:58;101578.03;;;12.82;91.55
84653;BME280;74883;48.882;2.092;2024-02-14T10:22:24;101584.06;;;12.83;92.02
84653;BME280;74883;48.882;2.092;2024-02-14T10:24:50;101591.09;;;12.82;91.68
84653;BME280;74883;48.882;2.092;2024-02-14T10:27:16;101612.78;;;12.83;91.38
84653;BME280;74883;48.882;2.092;2024-02-14T10:29:41;101605.72;;;12.85;91.69
84653;BME280;74883;48.882;2.092;2024-02-14T10:32:08;101601.44;;;12.84;91.19
84653;BME280;74883;48.882;2.092;2024-02-14T10:34:35;101597.72;;;12.88;91.77
84653;BME280;74883;48.882;2.092;2024-02-14T10:37:03;101599.34;;;12.90;91.96
84653;BME280;74883;48.882;2.092;2024-02-14T10:39:32;101605.94;;;12.97;90.48
84653;BME280;74883;48.882;2.092;2024-02-14T10:41:57;101619.13;;;12.94;91.25
84653;BME280;74883;48.882;2.092;2024-02-14T10:44:23;101626.13;;;12.94;91.16
84653;BME280;74883;48.882;2.092;2024-02-14T10:46:48;101628.75;;;12.94;90.52
84653;BME280;74883;48.882;2.092;2024-02-14T10:49:19;101635.97;;;12.89;91.49
84653;BME280;74883;48.882;2.092;2024-02-14T10:51:47;101638.97;;;12.81;91.33
84653;BME280;74883;48.882;2.092;2024-02-14T10:54:14;101635.44;;;12.82;91.81
84653;BME280;74883;48.882;2.092;2024-02-14T10:56:43;101630.28;;;12.81;92.02
84653;BME280;74883;48.882;2.092;2024-02-14T10:59:13;101635.44;;;12.82;92.54
84653;BME280;74883;48.882;2.092;2024-02-14T11:01:41;101627.28;;;12.88;92.95
84653;BME280;74883;48.882;2.092;2024-02-14T11:04:07;101623.59;;;12.92;92.34
84653;BME280;74883;48.882;2.092;2024-02-14T11:06:44;101621.16;;;12.89;92.59
84653;BME280;74883;48.882;2.092;2024-02-14T11:09:11;101624.44;;;12.93;93.12
84653;BME280;74883;48.882;2.092;2024-02-14T11:11:38;101626.03;;;12.95;91.79
84653;BME280;74883;48.882;2.092;2024-02-14T11:14:05;101626.66;;;13.00;92.07
84653;BME280;74883;48.882;2.092;2024-02-14T11:16:31;101615.22;;;13.03;91.80
84653;BME280;74883;48.882;2.092;2024-02-14T11:19:11;101612.75;;;13.00;92.21
84653;BME280;74883;48.882;2.092;2024-02-14T11:21:41;101618.06;;;12.98;92.27
84653;BME280;74883;48.882;2.092;2024-02-14T11:24:11;101614.75;;;12.95;92.59
84653;BME280;74883;48.882;2.092;2024-02-14T11:26:49;101608.78;;;12.93;92.36
84653;BME280;74883;48.882;2.092;2024-02-14T11:29:18;101621.81;;;12.93;93.20
84653;BME280;74883;48.882;2.092;2024-02-14T11:31:44;101611.63;;;12.88;92.21
84653;BME280;74883;48.882;2.092;2024-02-14T11:34:13;101616.69;;;12.91;91.76
84653;BME280;74883;48.882;2.092;2024-02-14T11:36:41;101626.28;;;12.91;91.29
84653;BME280;74883;48.882;2.092;2024-02-14T11:39:07;101613.00;;;12.95;92.36
84653;BME280;74883;48.882;2.092;2024-02-14T11:41:35;101617.28;;;12.96;92.96
84653;BME280;74883;48.882;2.092;2024-02-14T11:44:05;101626.38;;;12.89;92.62
84653;BME280;74883;48.882;2.092;2024-02-14T11:46:35;101617.75;;;12.87;93.39
84653;BME280;74883;48.882;2.092;2024-02-14T11:49:05;101618.00;;;12.83;92.60
84653;BME280;74883;48.882;2.092;2024-02-14T11:51:33;101605.56;;;12.88;93.54
84653;BME280;74883;48.882;2.092;2024-02-14T11:54:01;101601.03;;;12.91;92.22
84653;BME280;74883;48.882;2.092;2024-02-14T11:56:38;101590.59;;;12.91;92.75
84653;BME280;74883;48.882;2.092;2024-02-14T11:59:05;101601.84;;;12.92;93.16
84653;BME280;74883;48.882;2.092;2024-02-14T12:01:31;101589.59;;;12.94;92.27
84653;BME280;74883;48.882;2.092;2024-02-14T12:04:01;101604.94;;;13.00;92.75
84653;BME280;74883;48.882;2.092;2024-02-14T12:06:28;101599.16;;;13.10;92.59
84653;BME280;74883;48.882;2.092;2024-02-14T12:08:54;101599.97;;;13.28;91.85
84653;BME280;74883;48.882;2.092;2024-02-14T12:11:21;101608.97;;;13.38;91.17
84653;BME280;74883;48.882;2.092;2024-02-14T12:13:50;101598.31;;;13.43;91.02
84653;BME280;74883;48.882;2.092;2024-02-14T12:16:15;101599.81;;;13.47;89.98
84653;BME280;74883;48.882;2.092;2024-02-14T12:18:41;101596.94;;;13.51;90.44
84653;BME280;74883;48.882;2.092;2024-02-14T12:21:06;101585.66;;;13.51;90.47
84653;BME280;74883;48.882;2.092;2024-02-14T12:23:35;101582.19;;;13.50;90.13
84653;BME280;74883;48.882;2.092;2024-02-14T12:26:04;101589.13;;;13.51;90.60
84653;BME280;74883;48.882;2.092;2024-02-14T12:28:30;101591.78;;;13.50;90.29
84653;BME280;74883;48.882;2.092;2024-02-14T12:30:56;101602.25;;;13.50;89.95
84653;BME280;74883;48.882;2.092;2024-02-14T12:33:23;101603.19;;;13.49;89.37
84653;BME280;74883;48.882;2.092;2024-02-14T12:35:50;101596.09;;;13.51;90.11
84653;BME280;74883;48.882;2.092;2024-02-14T12:38:17;101598.22;;;13.60;90.74
84653;BME280;74883;48.882;2.092;2024-02-14T12:40:43;101598.81;;;13.65;90.36
84653;BME280;74883;48.882;2.092;2024-02-14T12:43:10;101595.03;;;13.70;90.65
84653;BME280;74883;48.882;2.092;2024-02-14T12:45:42;101588.59;;;13.76;88.92
84653;BME280;74883;48.882;2.092;2024-02-14T12:48:10;101591.97;;;13.78;88.95
84653;BME280;74883;48.882;2.092;2024-02-14T12:50:36;101590.09;;;13.80;89.30